Valle Di Nervion — IBPC — position and weather

sailwx.info

Track history (hours):
 
Tides and Currents Weather Stations Pressure Air Temp Water Temp Dewpoint Dewpoint Depression Visibility Wind Speed Wind Dir Waves Ship Positions

Valle Di Nervion

Last reported at 2016-Apr-22 15:11 UTC. Time now 2016-Apr-29 05:59 UTC.
Position N 40°35' E 013°07'.

Length 176 m; draft 9.6 m.

Type: Ship. MMSI: 247109500.

Date/timePositionNaut miles runAvg speedWind from/ knotsBaromVisibWave heightAir tempDewpointWater temp
2016-Apr-22 15:11N 40°35' E 013°07'912.5
2016-Apr-22 14:30N 40°29' E 013°15'2512.7
2016-Apr-22 12:32N 40°09' E 013°36'11412.6
2016-Apr-22 03:33N 38°43' E 015°11'1312.9
2016-Apr-22 02:33N 38°34' E 015°23'1312.9
2016-Apr-22 01:33N 38°24' E 015°34'1010.4
2016-Apr-22 00:33N 38°15' E 015°40'1211.6
2016-Apr-21 23:33N 38°04' E 015°36'1212.3
2016-Apr-21 22:33N 37°52' E 015°38'1313.1
2016-Apr-21 21:33N 37°47' E 015°54'36811.1
2016-Apr-20 12:22N 36°60' E 023°33'1012.3
2016-Apr-20 11:33N 37°10' E 023°36'1313.0
2016-Apr-20 10:33N 37°22' E 023°41'1313.0
2016-Apr-20 09:33N 37°35' E 023°42'1212.2
2016-Apr-20 08:33N 37°47' E 023°38'1211.5
2016-Apr-20 07:33N 37°51' E 023°24'1312.8
2016-Apr-20 06:33N 37°53' E 023°09'3 3.2
2016-Apr-20 05:32N 37°54' E 023°05'0 0.0
2016-Apr-20 04:32N 37°54' E 023°05'1 1.0
2016-Apr-20 03:33N 37°55' E 023°05'0 0.0
2016-Apr-20 02:21N 37°55' E 023°05'0 0.0
2016-Apr-20 01:21N 37°55' E 023°05'0 0.0
2016-Apr-20 00:30N 37°55' E 023°05'0 0.0
2016-Apr-19 22:30N 37°55' E 023°05'0 0.0
2016-Apr-19 21:30N 37°55' E 023°05'0 0.0
2016-Apr-19 20:18N 37°55' E 023°05'0 0.0
2016-Apr-19 19:27N 37°55' E 023°05'0 0.0
2016-Apr-19 15:33N 37°55' E 023°05'0 0.0
2016-Apr-19 14:32N 37°55' E 023°05'0 0.0
2016-Apr-19 13:29N 37°55' E 023°05'0 0.0
2016-Apr-19 12:32N 37°55' E 023°05'0 0.0
2016-Apr-19 11:26N 37°55' E 023°05'0 0.0
2016-Apr-19 10:32N 37°55' E 023°05'0 0.0
2016-Apr-19 09:29N 37°55' E 023°05'0 0.0
2016-Apr-19 08:14N 37°55' E 023°05'0 0.0
2016-Apr-19 07:32N 37°55' E 023°05'0 0.0
2016-Apr-19 06:32N 37°55' E 023°05'0 0.0
2016-Apr-19 05:32N 37°55' E 023°05'0 0.0
2016-Apr-19 04:32N 37°55' E 023°05'0 0.0
2016-Apr-19 03:32N 37°55' E 023°05'0 0.0
2016-Apr-19 02:29N 37°55' E 023°05'0 0.0
2016-Apr-19 01:32N 37°55' E 023°05'0 0.0
2016-Apr-19 00:32N 37°55' E 023°05'0 0.0
2016-Apr-18 23:32N 37°55' E 023°05'0 0.0
2016-Apr-18 22:29N 37°55' E 023°05'0 0.0
2016-Apr-18 21:32N 37°55' E 023°05'0 0.0
2016-Apr-18 20:32N 37°55' E 023°05'0 0.0
2016-Apr-18 19:26N 37°55' E 023°05'0 0.0
2016-Apr-18 18:29N 37°55' E 023°05'0 0.0
2016-Apr-18 17:14N 37°55' E 023°05'0 0.0
2016-Apr-18 16:32N 37°55' E 023°05'0 0.0
2016-Apr-18 15:26N 37°55' E 023°05'0 0.0
2016-Apr-18 14:26N 37°55' E 023°05'0 0.0
2016-Apr-18 13:32N 37°55' E 023°05'0 0.0
2016-Apr-18 12:32N 37°55' E 023°05'0 0.0
2016-Apr-18 11:29N 37°55' E 023°05'0 0.0
2016-Apr-18 10:32N 37°55' E 023°05'0 0.1
2016-Apr-18 08:33N 37°55' E 023°05'5 5.4
2016-Apr-18 07:33N 37°53' E 023°12'8 7.6
2016-Apr-18 06:33N 37°51' E 023°21'9 9.4
2016-Apr-18 05:33N 37°50' E 023°33'8 8.5
2016-Apr-18 04:33N 37°46' E 023°42'1110.8
2016-Apr-18 03:33N 37°36' E 023°47'1312.7
2016-Apr-18 02:33N 37°23' E 023°47'1312.9
2016-Apr-18 01:33N 37°10' E 023°45'1313.1
2016-Apr-18 00:33N 36°57' E 023°42'1312.6
2016-Apr-17 23:33N 36°45' E 023°39'1312.8
2016-Apr-17 22:33N 36°35' E 023°28'1312.7
2016-Apr-17 21:33N 36°26' E 023°18'12612.1
2016-Apr-17 11:08N 37°13' E 020°52'4813.1
2016-Apr-17 07:27N 37°57' E 020°26'3913.4
2016-Apr-17 04:33N 38°31' E 020°04'41213.1
2016-Apr-15 21:07N 43°43' E 014°06'813.4
2016-Apr-15 20:33N 43°48' E 013°59'1413.6
2016-Apr-15 19:33N 43°56' E 013°44'1313.5
2016-Apr-15 18:33N 44°04' E 013°28'1313.1
2016-Apr-15 17:33N 44°11' E 013°13'1312.9
2016-Apr-15 16:33N 44°24' E 013°07'1312.9
2016-Apr-15 15:33N 44°36' E 013°02'1212.3
2016-Apr-15 14:33N 44°48' E 012°57'1212.5
2016-Apr-15 13:34N 44°59' E 012°49'1312.8
2016-Apr-15 12:33N 45°09' E 012°38'1312.6
2016-Apr-15 11:33N 45°18' E 012°25'8 7.9
2016-Apr-15 10:34N 45°21' E 012°15'0 0.0
2016-Apr-14 11:32N 45°21' E 012°15'3 3.1
2016-Apr-14 10:33N 45°20' E 012°19'6 6.2
2016-Apr-14 09:33N 45°18' E 012°27'1211.5
2016-Apr-14 08:33N 45°12' E 012°41'1211.9
2016-Apr-14 07:33N 45°03' E 012°52'1312.4
2016-Apr-14 06:32N 44°51' E 012°59'  
Track history (hours):
 
Tides and Currents Weather Stations Pressure Air Temp Water Temp Dewpoint Dewpoint Depression Visibility Wind Speed Wind Dir Waves Ship Positions

Valle Di Nervion

Last reported at 2016-Apr-22 15:11 UTC. Time now 2016-Apr-29 05:59 UTC.
Position N 40°35' E 013°07'.

Length 176 m; draft 9.6 m.

Type: Ship. MMSI: 247109500.

Date/timePositionNaut miles runAvg speedWind from/ knotsBaromVisibWave heightAir tempDewpointWater temp
2016-Apr-22 15:11N 40°35' E 013°07'912.5
2016-Apr-22 14:30N 40°29' E 013°15'2512.7
2016-Apr-22 12:32N 40°09' E 013°36'11412.6
2016-Apr-22 03:33N 38°43' E 015°11'1312.9
2016-Apr-22 02:33N 38°34' E 015°23'1312.9
2016-Apr-22 01:33N 38°24' E 015°34'1010.4
2016-Apr-22 00:33N 38°15' E 015°40'1211.6
2016-Apr-21 23:33N 38°04' E 015°36'1212.3
2016-Apr-21 22:33N 37°52' E 015°38'1313.1
2016-Apr-21 21:33N 37°47' E 015°54'36811.1
2016-Apr-20 12:22N 36°60' E 023°33'1012.3
2016-Apr-20 11:33N 37°10' E 023°36'1313.0
2016-Apr-20 10:33N 37°22' E 023°41'1313.0
2016-Apr-20 09:33N 37°35' E 023°42'1212.2
2016-Apr-20 08:33N 37°47' E 023°38'1211.5
2016-Apr-20 07:33N 37°51' E 023°24'1312.8
2016-Apr-20 06:33N 37°53' E 023°09'3 3.2
2016-Apr-20 05:32N 37°54' E 023°05'0 0.0
2016-Apr-20 04:32N 37°54' E 023°05'1 1.0
2016-Apr-20 03:33N 37°55' E 023°05'0 0.0
2016-Apr-20 02:21N 37°55' E 023°05'0 0.0
2016-Apr-20 01:21N 37°55' E 023°05'0 0.0
2016-Apr-20 00:30N 37°55' E 023°05'0 0.0
2016-Apr-19 22:30N 37°55' E 023°05'0 0.0
2016-Apr-19 21:30N 37°55' E 023°05'0 0.0
2016-Apr-19 20:18N 37°55' E 023°05'0 0.0
2016-Apr-19 19:27N 37°55' E 023°05'0 0.0
2016-Apr-19 15:33N 37°55' E 023°05'0 0.0
2016-Apr-19 14:32N 37°55' E 023°05'0 0.0
2016-Apr-19 13:29N 37°55' E 023°05'0 0.0
2016-Apr-19 12:32N 37°55' E 023°05'0 0.0
2016-Apr-19 11:26N 37°55' E 023°05'0 0.0
2016-Apr-19 10:32N 37°55' E 023°05'0 0.0
2016-Apr-19 09:29N 37°55' E 023°05'0 0.0
2016-Apr-19 08:14N 37°55' E 023°05'0 0.0
2016-Apr-19 07:32N 37°55' E 023°05'0 0.0
2016-Apr-19 06:32N 37°55' E 023°05'0 0.0
2016-Apr-19 05:32N 37°55' E 023°05'0 0.0
2016-Apr-19 04:32N 37°55' E 023°05'0 0.0
2016-Apr-19 03:32N 37°55' E 023°05'0 0.0
2016-Apr-19 02:29N 37°55' E 023°05'0 0.0
2016-Apr-19 01:32N 37°55' E 023°05'0 0.0
2016-Apr-19 00:32N 37°55' E 023°05'0 0.0
2016-Apr-18 23:32N 37°55' E 023°05'0 0.0
2016-Apr-18 22:29N 37°55' E 023°05'0 0.0
2016-Apr-18 21:32N 37°55' E 023°05'0 0.0
2016-Apr-18 20:32N 37°55' E 023°05'0 0.0
2016-Apr-18 19:26N 37°55' E 023°05'0 0.0
2016-Apr-18 18:29N 37°55' E 023°05'0 0.0
2016-Apr-18 17:14N 37°55' E 023°05'0 0.0
2016-Apr-18 16:32N 37°55' E 023°05'0 0.0
2016-Apr-18 15:26N 37°55' E 023°05'0 0.0
2016-Apr-18 14:26N 37°55' E 023°05'0 0.0
2016-Apr-18 13:32N 37°55' E 023°05'0 0.0
2016-Apr-18 12:32N 37°55' E 023°05'0 0.0
2016-Apr-18 11:29N 37°55' E 023°05'0 0.0
2016-Apr-18 10:32N 37°55' E 023°05'0 0.1
2016-Apr-18 08:33N 37°55' E 023°05'5 5.4
2016-Apr-18 07:33N 37°53' E 023°12'8 7.6
2016-Apr-18 06:33N 37°51' E 023°21'9 9.4
2016-Apr-18 05:33N 37°50' E 023°33'8 8.5
2016-Apr-18 04:33N 37°46' E 023°42'1110.8
2016-Apr-18 03:33N 37°36' E 023°47'1312.7
2016-Apr-18 02:33N 37°23' E 023°47'1312.9
2016-Apr-18 01:33N 37°10' E 023°45'1313.1
2016-Apr-18 00:33N 36°57' E 023°42'1312.6
2016-Apr-17 23:33N 36°45' E 023°39'1312.8
2016-Apr-17 22:33N 36°35' E 023°28'1312.7
2016-Apr-17 21:33N 36°26' E 023°18'12612.1
2016-Apr-17 11:08N 37°13' E 020°52'4813.1
2016-Apr-17 07:27N 37°57' E 020°26'3913.4
2016-Apr-17 04:33N 38°31' E 020°04'41213.1
2016-Apr-15 21:07N 43°43' E 014°06'813.4
2016-Apr-15 20:33N 43°48' E 013°59'1413.6
2016-Apr-15 19:33N 43°56' E 013°44'1313.5
2016-Apr-15 18:33N 44°04' E 013°28'1313.1
2016-Apr-15 17:33N 44°11' E 013°13'1312.9
2016-Apr-15 16:33N 44°24' E 013°07'1312.9
2016-Apr-15 15:33N 44°36' E 013°02'1212.3
2016-Apr-15 14:33N 44°48' E 012°57'1212.5
2016-Apr-15 13:34N 44°59' E 012°49'1312.8
2016-Apr-15 12:33N 45°09' E 012°38'1312.6
2016-Apr-15 11:33N 45°18' E 012°25'8 7.9
2016-Apr-15 10:34N 45°21' E 012°15'0 0.0
2016-Apr-14 11:32N 45°21' E 012°15'3 3.1
2016-Apr-14 10:33N 45°20' E 012°19'6 6.2
2016-Apr-14 09:33N 45°18' E 012°27'1211.5
2016-Apr-14 08:33N 45°12' E 012°41'1211.9
2016-Apr-14 07:33N 45°03' E 012°52'1312.4
2016-Apr-14 06:32N 44°51' E 012°59'  

Dump ship's entire track history